sensor_id;sensor_type;location;lat;lon;timestamp;temperature;humidity
66708;DHT22;53622;0.000;0.000;2023-07-31T00:02:04;21.60;59.70
66708;DHT22;53622;0.000;0.000;2023-07-31T00:04:35;21.60;59.90
66708;DHT22;53622;0.000;0.000;2023-07-31T00:07:05;21.60;60.00
66708;DHT22;53622;0.000;0.000;2023-07-31T00:09:34;21.50;60.20
66708;DHT22;53622;0.000;0.000;2023-07-31T00:12:04;21.40;60.60
66708;DHT22;53622;0.000;0.000;2023-07-31T00:14:33;21.40;60.80
66708;DHT22;53622;0.000;0.000;2023-07-31T00:17:03;21.40;60.70
66708;DHT22;53622;0.000;0.000;2023-07-31T00:19:32;21.40;60.60
66708;DHT22;53622;0.000;0.000;2023-07-31T00:22:03;21.40;60.60
66708;DHT22;53622;0.000;0.000;2023-07-31T00:24:33;21.30;60.70
66708;DHT22;53622;0.000;0.000;2023-07-31T00:27:02;21.30;60.80
66708;DHT22;53622;0.000;0.000;2023-07-31T00:29:32;21.20;60.80
66708;DHT22;53622;0.000;0.000;2023-07-31T00:32:01;21.20;61.00
66708;DHT22;53622;0.000;0.000;2023-07-31T00:34:30;21.10;60.50
66708;DHT22;53622;0.000;0.000;2023-07-31T00:37:00;21.10;60.70
66708;DHT22;53622;0.000;0.000;2023-07-31T00:39:33;21.10;60.80
66708;DHT22;53622;0.000;0.000;2023-07-31T00:42:03;21.10;61.00
66708;DHT22;53622;0.000;0.000;2023-07-31T00:44:33;21.10;61.20
66708;DHT22;53622;0.000;0.000;2023-07-31T00:47:02;21.10;61.10
66708;DHT22;53622;0.000;0.000;2023-07-31T00:49:31;21.10;60.70
66708;DHT22;53622;0.000;0.000;2023-07-31T00:52:01;21.00;60.70
66708;DHT22;53622;0.000;0.000;2023-07-31T00:54:32;21.00;60.80
66708;DHT22;53622;0.000;0.000;2023-07-31T00:57:01;21.00;61.20
66708;DHT22;53622;0.000;0.000;2023-07-31T00:59:31;20.90;61.60
66708;DHT22;53622;0.000;0.000;2023-07-31T01:02:00;21.00;61.60
66708;DHT22;53622;0.000;0.000;2023-07-31T01:04:30;21.00;61.50
66708;DHT22;53622;0.000;0.000;2023-07-31T01:07:03;21.00;60.70
66708;DHT22;53622;0.000;0.000;2023-07-31T01:09:40;20.90;60.70
66708;DHT22;53622;0.000;0.000;2023-07-31T01:12:14;20.90;60.80
66708;DHT22;53622;0.000;0.000;2023-07-31T01:15:02;20.80;61.10
66708;DHT22;53622;0.000;0.000;2023-07-31T01:17:32;20.80;61.30
66708;DHT22;53622;0.000;0.000;2023-07-31T01:20:03;20.70;61.70
66708;DHT22;53622;0.000;0.000;2023-07-31T01:22:54;20.70;62.00
66708;DHT22;53622;0.000;0.000;2023-07-31T01:25:46;20.70;61.80
66708;DHT22;53622;0.000;0.000;2023-07-31T01:28:29;20.70;61.70
66708;DHT22;53622;0.000;0.000;2023-07-31T01:31:02;20.70;61.60
66708;DHT22;53622;0.000;0.000;2023-07-31T01:33:33;20.60;62.00
66708;DHT22;53622;0.000;0.000;2023-07-31T01:36:04;20.60;62.10
66708;DHT22;53622;0.000;0.000;2023-07-31T01:38:34;20.60;62.30
66708;DHT22;53622;0.000;0.000;2023-07-31T01:41:04;20.60;62.10
66708;DHT22;53622;0.000;0.000;2023-07-31T01:43:34;20.60;62.10
66708;DHT22;53622;0.000;0.000;2023-07-31T01:46:05;20.60;62.30
66708;DHT22;53622;0.000;0.000;2023-07-31T01:48:34;20.50;62.30
66708;DHT22;53622;0.000;0.000;2023-07-31T01:51:04;20.50;62.10
66708;DHT22;53622;0.000;0.000;2023-07-31T01:53:34;20.50;62.60
66708;DHT22;53622;0.000;0.000;2023-07-31T01:56:04;20.50;63.10
66708;DHT22;53622;0.000;0.000;2023-07-31T01:58:34;20.50;62.80
66708;DHT22;53622;0.000;0.000;2023-07-31T02:01:03;20.50;62.50
66708;DHT22;53622;0.000;0.000;2023-07-31T02:03:34;20.40;62.60
66708;DHT22;53622;0.000;0.000;2023-07-31T02:06:04;20.30;63.10
66708;DHT22;53622;0.000;0.000;2023-07-31T02:08:33;20.30;63.00
66708;DHT22;53622;0.000;0.000;2023-07-31T02:11:04;20.30;62.80
66708;DHT22;53622;0.000;0.000;2023-07-31T02:13:33;20.30;62.80
66708;DHT22;53622;0.000;0.000;2023-07-31T02:16:03;20.30;62.40
66708;DHT22;53622;0.000;0.000;2023-07-31T02:18:33;20.30;62.50
66708;DHT22;53622;0.000;0.000;2023-07-31T02:21:02;20.20;62.60
66708;DHT22;53622;0.000;0.000;2023-07-31T02:23:32;20.20;62.50
66708;DHT22;53622;0.000;0.000;2023-07-31T02:26:02;20.20;62.90
66708;DHT22;53622;0.000;0.000;2023-07-31T02:28:33;20.10;62.80
66708;DHT22;53622;0.000;0.000;2023-07-31T02:31:02;20.10;62.90
66708;DHT22;53622;0.000;0.000;2023-07-31T02:33:31;20.20;62.70
66708;DHT22;53622;0.000;0.000;2023-07-31T02:36:01;20.20;62.70
66708;DHT22;53622;0.000;0.000;2023-07-31T02:38:30;20.10;62.90
66708;DHT22;53622;0.000;0.000;2023-07-31T02:40:58;20.10;63.20
66708;DHT22;53622;0.000;0.000;2023-07-31T02:43:28;20.10;63.50
66708;DHT22;53622;0.000;0.000;2023-07-31T02:45:59;20.10;63.60
66708;DHT22;53622;0.000;0.000;2023-07-31T02:48:29;20.10;63.60
66708;DHT22;53622;0.000;0.000;2023-07-31T02:50:58;20.10;63.60
66708;DHT22;53622;0.000;0.000;2023-07-31T02:53:27;20.00;64.00
66708;DHT22;53622;0.000;0.000;2023-07-31T02:55:56;20.00;64.00
66708;DHT22;53622;0.000;0.000;2023-07-31T02:58:26;20.00;64.10
66708;DHT22;53622;0.000;0.000;2023-07-31T03:00:55;20.00;64.10
66708;DHT22;53622;0.000;0.000;2023-07-31T03:03:26;20.00;64.00
66708;DHT22;53622;0.000;0.000;2023-07-31T03:05:56;20.00;64.20
66708;DHT22;53622;0.000;0.000;2023-07-31T03:08:25;19.90;64.80
66708;DHT22;53622;0.000;0.000;2023-07-31T03:10:56;19.90;65.20
66708;DHT22;53622;0.000;0.000;2023-07-31T03:13:25;19.90;65.30
66708;DHT22;53622;0.000;0.000;2023-07-31T03:15:54;19.90;65.60
66708;DHT22;53622;0.000;0.000;2023-07-31T03:18:25;19.90;65.50
66708;DHT22;53622;0.000;0.000;2023-07-31T03:20:54;19.80;65.60
66708;DHT22;53622;0.000;0.000;2023-07-31T03:23:24;19.90;65.70
66708;DHT22;53622;0.000;0.000;2023-07-31T03:25:58;20.00;65.30
66708;DHT22;53622;0.000;0.000;2023-07-31T03:28:30;20.20;64.70
66708;DHT22;53622;0.000;0.000;2023-07-31T03:31:00;20.40;64.20
66708;DHT22;53622;0.000;0.000;2023-07-31T03:33:31;20.50;63.80
66708;DHT22;53622;0.000;0.000;2023-07-31T03:36:00;20.70;63.40
66708;DHT22;53622;0.000;0.000;2023-07-31T03:38:31;20.80;63.50
66708;DHT22;53622;0.000;0.000;2023-07-31T03:41:00;20.90;62.80
66708;DHT22;53622;0.000;0.000;2023-07-31T03:43:30;21.00;62.60
66708;DHT22;53622;0.000;0.000;2023-07-31T03:46:00;21.00;62.40
66708;DHT22;53622;0.000;0.000;2023-07-31T03:48:32;21.10;62.30
66708;DHT22;53622;0.000;0.000;2023-07-31T03:51:01;21.10;62.20
66708;DHT22;53622;0.000;0.000;2023-07-31T03:53:32;21.20;62.10
66708;DHT22;53622;0.000;0.000;2023-07-31T03:56:01;21.20;62.10
66708;DHT22;53622;0.000;0.000;2023-07-31T03:58:30;21.30;62.00
66708;DHT22;53622;0.000;0.000;2023-07-31T04:00:59;21.30;61.90
66708;DHT22;53622;0.000;0.000;2023-07-31T04:03:29;21.30;61.80
66708;DHT22;53622;0.000;0.000;2023-07-31T04:05:59;21.30;61.80
66708;DHT22;53622;0.000;0.000;2023-07-31T04:08:29;21.30;61.70
66708;DHT22;53622;0.000;0.000;2023-07-31T04:10:58;21.40;61.70
66708;DHT22;53622;0.000;0.000;2023-07-31T04:13:29;21.40;61.70
66708;DHT22;53622;0.000;0.000;2023-07-31T04:15:58;21.40;61.60
66708;DHT22;53622;0.000;0.000;2023-07-31T04:18:28;21.50;61.70
66708;DHT22;53622;0.000;0.000;2023-07-31T04:21:00;21.50;61.70
66708;DHT22;53622;0.000;0.000;2023-07-31T04:23:30;21.50;61.60
66708;DHT22;53622;0.000;0.000;2023-07-31T04:25:59;21.50;61.60
66708;DHT22;53622;0.000;0.000;2023-07-31T04:28:29;21.50;61.60
66708;DHT22;53622;0.000;0.000;2023-07-31T04:30:59;21.50;61.70
66708;DHT22;53622;0.000;0.000;2023-07-31T04:33:29;21.50;61.70
66708;DHT22;53622;0.000;0.000;2023-07-31T04:36:00;21.50;61.60
66708;DHT22;53622;0.000;0.000;2023-07-31T04:38:30;21.60;61.60
66708;DHT22;53622;0.000;0.000;2023-07-31T04:40:59;21.60;61.60
66708;DHT22;53622;0.000;0.000;2023-07-31T04:43:28;21.60;61.60
66708;DHT22;53622;0.000;0.000;2023-07-31T04:45:57;21.60;61.60
66708;DHT22;53622;0.000;0.000;2023-07-31T04:48:27;21.60;61.60
66708;DHT22;53622;0.000;0.000;2023-07-31T04:50:56;21.60;61.60
66708;DHT22;53622;0.000;0.000;2023-07-31T04:53:27;21.60;61.60
66708;DHT22;53622;0.000;0.000;2023-07-31T04:55:56;21.60;61.60
66708;DHT22;53622;0.000;0.000;2023-07-31T04:58:26;21.70;61.60
66708;DHT22;53622;0.000;0.000;2023-07-31T05:00:55;21.70;61.60
66708;DHT22;53622;0.000;0.000;2023-07-31T05:03:24;21.70;61.60
66708;DHT22;53622;0.000;0.000;2023-07-31T05:05:54;21.70;61.60
66708;DHT22;53622;0.000;0.000;2023-07-31T05:08:23;21.70;61.60
66708;DHT22;53622;0.000;0.000;2023-07-31T05:10:54;21.70;61.60
66708;DHT22;53622;0.000;0.000;2023-07-31T05:13:23;21.70;61.60
66708;DHT22;53622;0.000;0.000;2023-07-31T05:15:52;21.80;61.70
66708;DHT22;53622;0.000;0.000;2023-07-31T05:18:22;21.70;61.70
66708;DHT22;53622;0.000;0.000;2023-07-31T05:20:51;21.80;61.80
66708;DHT22;53622;0.000;0.000;2023-07-31T05:23:21;21.70;61.80
66708;DHT22;53622;0.000;0.000;2023-07-31T05:25:50;21.70;61.80
66708;DHT22;53622;0.000;0.000;2023-07-31T05:28:21;21.70;61.90
66708;DHT22;53622;0.000;0.000;2023-07-31T05:30:51;21.70;61.70
66708;DHT22;53622;0.000;0.000;2023-07-31T05:33:21;21.80;61.90
66708;DHT22;53622;0.000;0.000;2023-07-31T05:35:50;21.80;62.00
66708;DHT22;53622;0.000;0.000;2023-07-31T05:38:20;21.80;62.00
66708;DHT22;53622;0.000;0.000;2023-07-31T05:40:49;21.80;62.00
66708;DHT22;53622;0.000;0.000;2023-07-31T05:43:20;21.80;62.00
66708;DHT22;53622;0.000;0.000;2023-07-31T05:45:51;21.80;61.90
66708;DHT22;53622;0.000;0.000;2023-07-31T05:49:34;21.80;62.00
66708;DHT22;53622;0.000;0.000;2023-07-31T05:52:04;21.80;62.10
66708;DHT22;53622;0.000;0.000;2023-07-31T05:54:33;21.80;62.10
66708;DHT22;53622;0.000;0.000;2023-07-31T05:57:03;21.80;62.20
66708;DHT22;53622;0.000;0.000;2023-07-31T05:59:34;21.80;62.10
66708;DHT22;53622;0.000;0.000;2023-07-31T06:02:04;21.90;61.90
66708;DHT22;53622;0.000;0.000;2023-07-31T06:04:33;21.80;62.00
66708;DHT22;53622;0.000;0.000;2023-07-31T06:07:03;21.80;62.00
66708;DHT22;53622;0.000;0.000;2023-07-31T06:09:32;21.90;62.20
66708;DHT22;53622;0.000;0.000;2023-07-31T06:12:02;21.90;62.30
66708;DHT22;53622;0.000;0.000;2023-07-31T06:14:33;21.80;62.40
66708;DHT22;53622;0.000;0.000;2023-07-31T06:17:03;21.90;62.60
66708;DHT22;53622;0.000;0.000;2023-07-31T06:19:32;21.90;62.90
66708;DHT22;53622;0.000;0.000;2023-07-31T06:22:01;21.90;63.00
66708;DHT22;53622;0.000;0.000;2023-07-31T06:24:31;21.90;63.00
66708;DHT22;53622;0.000;0.000;2023-07-31T06:27:00;21.90;63.00
66708;DHT22;53622;0.000;0.000;2023-07-31T06:29:31;21.90;63.00
66708;DHT22;53622;0.000;0.000;2023-07-31T06:32:02;21.90;63.10
66708;DHT22;53622;0.000;0.000;2023-07-31T06:34:32;21.90;63.20
66708;DHT22;53622;0.000;0.000;2023-07-31T06:37:02;21.90;63.30
66708;DHT22;53622;0.000;0.000;2023-07-31T06:39:31;21.90;63.20
66708;DHT22;53622;0.000;0.000;2023-07-31T06:42:01;21.90;63.20
66708;DHT22;53622;0.000;0.000;2023-07-31T06:44:30;22.00;63.30
66708;DHT22;53622;0.000;0.000;2023-07-31T06:47:01;21.90;63.30
66708;DHT22;53622;0.000;0.000;2023-07-31T06:49:31;22.00;63.40
66708;DHT22;53622;0.000;0.000;2023-07-31T06:52:01;22.00;63.40
66708;DHT22;53622;0.000;0.000;2023-07-31T06:54:31;22.00;63.50
66708;DHT22;53622;0.000;0.000;2023-07-31T06:57:01;22.10;63.60
66708;DHT22;53622;0.000;0.000;2023-07-31T06:59:31;22.10;63.60
66708;DHT22;53622;0.000;0.000;2023-07-31T07:02:02;22.10;63.50
66708;DHT22;53622;0.000;0.000;2023-07-31T07:04:33;22.10;63.50
66708;DHT22;53622;0.000;0.000;2023-07-31T07:07:04;22.20;63.70
66708;DHT22;53622;0.000;0.000;2023-07-31T07:09:33;22.20;63.40
66708;DHT22;53622;0.000;0.000;2023-07-31T07:12:03;22.30;63.30
66708;DHT22;53622;0.000;0.000;2023-07-31T07:14:33;22.30;63.10
66708;DHT22;53622;0.000;0.000;2023-07-31T07:17:05;22.40;63.10
66708;DHT22;53622;0.000;0.000;2023-07-31T07:19:41;22.40;63.20
66708;DHT22;53622;0.000;0.000;2023-07-31T07:22:11;22.50;63.30
66708;DHT22;53622;0.000;0.000;2023-07-31T07:24:40;22.50;63.20
66708;DHT22;53622;0.000;0.000;2023-07-31T07:27:10;22.60;63.20
66708;DHT22;53622;0.000;0.000;2023-07-31T07:29:39;22.60;63.20
66708;DHT22;53622;0.000;0.000;2023-07-31T07:32:10;22.60;63.20
66708;DHT22;53622;0.000;0.000;2023-07-31T07:34:40;22.70;63.10
66708;DHT22;53622;0.000;0.000;2023-07-31T07:37:09;22.80;63.00
66708;DHT22;53622;0.000;0.000;2023-07-31T07:39:38;22.80;63.00
66708;DHT22;53622;0.000;0.000;2023-07-31T07:42:08;22.80;62.90
66708;DHT22;53622;0.000;0.000;2023-07-31T07:44:37;22.80;63.00
66708;DHT22;53622;0.000;0.000;2023-07-31T07:47:08;22.90;63.00
66708;DHT22;53622;0.000;0.000;2023-07-31T07:49:39;22.90;63.10
66708;DHT22;53622;0.000;0.000;2023-07-31T07:52:08;22.90;63.10
66708;DHT22;53622;0.000;0.000;2023-07-31T07:54:37;22.90;63.20
66708;DHT22;53622;0.000;0.000;2023-07-31T07:57:07;22.90;63.20
66708;DHT22;53622;0.000;0.000;2023-07-31T07:59:37;22.90;63.20
66708;DHT22;53622;0.000;0.000;2023-07-31T08:02:07;22.90;63.20
66708;DHT22;53622;0.000;0.000;2023-07-31T08:04:38;23.00;63.30
66708;DHT22;53622;0.000;0.000;2023-07-31T08:07:08;23.00;63.20
66708;DHT22;53622;0.000;0.000;2023-07-31T08:09:40;23.00;63.20
66708;DHT22;53622;0.000;0.000;2023-07-31T08:12:09;23.00;63.20
66708;DHT22;53622;0.000;0.000;2023-07-31T08:14:39;23.10;63.00
66708;DHT22;53622;0.000;0.000;2023-07-31T08:17:08;23.10;63.00
66708;DHT22;53622;0.000;0.000;2023-07-31T08:19:39;23.10;62.90
66708;DHT22;53622;0.000;0.000;2023-07-31T08:22:09;23.10;62.70
66708;DHT22;53622;0.000;0.000;2023-07-31T08:24:38;23.20;63.40
66708;DHT22;53622;0.000;0.000;2023-07-31T08:27:08;23.20;62.60
66708;DHT22;53622;0.000;0.000;2023-07-31T08:29:38;23.20;62.40
66708;DHT22;53622;0.000;0.000;2023-07-31T08:32:07;23.10;62.30
66708;DHT22;53622;0.000;0.000;2023-07-31T08:34:36;23.10;62.50
66708;DHT22;53622;0.000;0.000;2023-07-31T08:37:07;23.10;62.50
66708;DHT22;53622;0.000;0.000;2023-07-31T08:39:37;23.10;62.50
66708;DHT22;53622;0.000;0.000;2023-07-31T08:42:09;23.10;62.50
66708;DHT22;53622;0.000;0.000;2023-07-31T08:44:39;23.20;63.30
66708;DHT22;53622;0.000;0.000;2023-07-31T08:47:10;23.20;62.60
66708;DHT22;53622;0.000;0.000;2023-07-31T08:49:41;23.20;62.60
66708;DHT22;53622;0.000;0.000;2023-07-31T08:52:13;23.20;62.70
66708;DHT22;53622;0.000;0.000;2023-07-31T08:54:42;23.20;62.60
66708;DHT22;53622;0.000;0.000;2023-07-31T08:57:12;23.30;62.60
66708;DHT22;53622;0.000;0.000;2023-07-31T08:59:42;23.30;62.60
66708;DHT22;53622;0.000;0.000;2023-07-31T09:02:13;23.30;62.70
66708;DHT22;53622;0.000;0.000;2023-07-31T09:04:45;23.40;62.90
66708;DHT22;53622;0.000;0.000;2023-07-31T09:07:17;23.40;63.00
66708;DHT22;53622;0.000;0.000;2023-07-31T09:09:48;23.40;63.00
66708;DHT22;53622;0.000;0.000;2023-07-31T09:12:17;23.40;63.10
66708;DHT22;53622;0.000;0.000;2023-07-31T09:14:48;23.40;63.10
66708;DHT22;53622;0.000;0.000;2023-07-31T09:17:28;23.50;63.30
66708;DHT22;53622;0.000;0.000;2023-07-31T09:19:58;23.50;63.30
66708;DHT22;53622;0.000;0.000;2023-07-31T09:22:43;23.40;63.20
66708;DHT22;53622;0.000;0.000;2023-07-31T09:25:17;23.50;63.30
66708;DHT22;53622;0.000;0.000;2023-07-31T09:27:47;23.50;63.30
66708;DHT22;53622;0.000;0.000;2023-07-31T09:30:17;23.50;63.30
66708;DHT22;53622;0.000;0.000;2023-07-31T09:32:48;23.50;63.00
66708;DHT22;53622;0.000;0.000;2023-07-31T09:35:22;23.50;61.80
66708;DHT22;53622;0.000;0.000;2023-07-31T09:37:58;23.50;61.00
66708;DHT22;53622;0.000;0.000;2023-07-31T09:40:29;23.40;61.50
66708;DHT22;53622;0.000;0.000;2023-07-31T09:43:00;23.40;61.30
66708;DHT22;53622;0.000;0.000;2023-07-31T09:45:34;23.40;61.40
66708;DHT22;53622;0.000;0.000;2023-07-31T09:48:09;23.30;61.50
66708;DHT22;53622;0.000;0.000;2023-07-31T09:50:41;23.30;61.60
66708;DHT22;53622;0.000;0.000;2023-07-31T09:53:12;23.30;61.70
66708;DHT22;53622;0.000;0.000;2023-07-31T09:55:42;23.30;61.80
66708;DHT22;53622;0.000;0.000;2023-07-31T09:58:12;23.30;61.70
66708;DHT22;53622;0.000;0.000;2023-07-31T10:00:42;23.30;61.90
66708;DHT22;53622;0.000;0.000;2023-07-31T10:03:11;23.30;62.00
66708;DHT22;53622;0.000;0.000;2023-07-31T10:05:45;23.40;62.10
66708;DHT22;53622;0.000;0.000;2023-07-31T10:08:19;23.30;62.20
66708;DHT22;53622;0.000;0.000;2023-07-31T10:10:50;23.30;62.20
66708;DHT22;53622;0.000;0.000;2023-07-31T10:13:19;23.30;62.30
66708;DHT22;53622;0.000;0.000;2023-07-31T10:15:50;23.30;62.40
66708;DHT22;53622;0.000;0.000;2023-07-31T10:18:20;23.30;62.40
66708;DHT22;53622;0.000;0.000;2023-07-31T10:20:49;23.40;62.50
66708;DHT22;53622;0.000;0.000;2023-07-31T10:23:21;23.40;62.60
66708;DHT22;53622;0.000;0.000;2023-07-31T10:25:53;23.40;62.60
66708;DHT22;53622;0.000;0.000;2023-07-31T10:28:22;23.40;62.70
66708;DHT22;53622;0.000;0.000;2023-07-31T10:30:54;23.40;62.80
66708;DHT22;53622;0.000;0.000;2023-07-31T10:33:24;23.30;62.90
66708;DHT22;53622;0.000;0.000;2023-07-31T10:36:16;23.30;63.00
66708;DHT22;53622;0.000;0.000;2023-07-31T10:38:48;23.30;63.20
66708;DHT22;53622;0.000;0.000;2023-07-31T10:41:18;23.30;63.30
66708;DHT22;53622;0.000;0.000;2023-07-31T10:43:47;23.30;63.40
66708;DHT22;53622;0.000;0.000;2023-07-31T10:46:17;23.30;63.40
66708;DHT22;53622;0.000;0.000;2023-07-31T10:48:57;23.30;63.50
66708;DHT22;53622;0.000;0.000;2023-07-31T10:51:33;23.30;63.60
66708;DHT22;53622;0.000;0.000;2023-07-31T10:54:15;23.30;63.60
66708;DHT22;53622;0.000;0.000;2023-07-31T10:56:46;23.30;63.70
66708;DHT22;53622;0.000;0.000;2023-07-31T10:59:15;23.30;63.70
66708;DHT22;53622;0.000;0.000;2023-07-31T11:01:52;23.30;63.80
66708;DHT22;53622;0.000;0.000;2023-07-31T11:04:25;23.30;63.90
66708;DHT22;53622;0.000;0.000;2023-07-31T11:06:59;23.30;64.00
66708;DHT22;53622;0.000;0.000;2023-07-31T11:09:31;23.30;64.00
66708;DHT22;53622;0.000;0.000;2023-07-31T11:12:00;23.30;64.10
66708;DHT22;53622;0.000;0.000;2023-07-31T11:14:29;23.30;64.20
66708;DHT22;53622;0.000;0.000;2023-07-31T11:16:59;23.30;64.20
66708;DHT22;53622;0.000;0.000;2023-07-31T11:19:28;23.30;64.30
66708;DHT22;53622;0.000;0.000;2023-07-31T11:21:58;23.30;64.30
66708;DHT22;53622;0.000;0.000;2023-07-31T11:24:29;23.30;64.30
66708;DHT22;53622;0.000;0.000;2023-07-31T11:26:58;23.30;64.30
66708;DHT22;53622;0.000;0.000;2023-07-31T11:29:28;23.30;64.40
66708;DHT22;53622;0.000;0.000;2023-07-31T11:31:57;23.30;64.40
66708;DHT22;53622;0.000;0.000;2023-07-31T11:34:26;23.30;64.50
66708;DHT22;53622;0.000;0.000;2023-07-31T11:36:56;23.30;64.60
66708;DHT22;53622;0.000;0.000;2023-07-31T11:39:25;23.30;64.60
66708;DHT22;53622;0.000;0.000;2023-07-31T11:42:01;23.30;64.60
66708;DHT22;53622;0.000;0.000;2023-07-31T11:44:38;23.30;64.60
66708;DHT22;53622;0.000;0.000;2023-07-31T11:47:08;23.30;64.70
66708;DHT22;53622;0.000;0.000;2023-07-31T11:49:37;23.30;64.60
66708;DHT22;53622;0.000;0.000;2023-07-31T11:52:07;23.30;64.70
66708;DHT22;53622;0.000;0.000;2023-07-31T11:54:36;23.30;64.70
66708;DHT22;53622;0.000;0.000;2023-07-31T11:57:08;23.30;64.70
66708;DHT22;53622;0.000;0.000;2023-07-31T11:59:38;23.30;64.70
66708;DHT22;53622;0.000;0.000;2023-07-31T12:02:08;23.30;64.70
66708;DHT22;53622;0.000;0.000;2023-07-31T12:04:37;23.30;64.80
66708;DHT22;53622;0.000;0.000;2023-07-31T12:07:07;23.30;64.90
66708;DHT22;53622;0.000;0.000;2023-07-31T12:09:36;23.30;64.80
66708;DHT22;53622;0.000;0.000;2023-07-31T12:12:09;23.30;64.90
66708;DHT22;53622;0.000;0.000;2023-07-31T12:14:42;23.30;64.90
66708;DHT22;53622;0.000;0.000;2023-07-31T12:17:11;23.30;64.90
66708;DHT22;53622;0.000;0.000;2023-07-31T12:19:41;23.30;64.90
66708;DHT22;53622;0.000;0.000;2023-07-31T12:22:14;23.30;64.90
66708;DHT22;53622;0.000;0.000;2023-07-31T12:24:44;23.30;64.80
66708;DHT22;53622;0.000;0.000;2023-07-31T12:27:15;23.30;64.90
66708;DHT22;53622;0.000;0.000;2023-07-31T12:29:46;23.30;64.90
66708;DHT22;53622;0.000;0.000;2023-07-31T12:32:20;23.30;64.90
66708;DHT22;53622;0.000;0.000;2023-07-31T12:34:49;23.30;64.90
66708;DHT22;53622;0.000;0.000;2023-07-31T12:37:19;23.30;65.00
66708;DHT22;53622;0.000;0.000;2023-07-31T12:39:49;23.30;64.90
66708;DHT22;53622;0.000;0.000;2023-07-31T12:42:20;23.30;64.90
66708;DHT22;53622;0.000;0.000;2023-07-31T12:44:49;23.30;65.00
66708;DHT22;53622;0.000;0.000;2023-07-31T12:47:18;23.30;65.00
66708;DHT22;53622;0.000;0.000;2023-07-31T12:49:48;23.30;64.90
66708;DHT22;53622;0.000;0.000;2023-07-31T12:52:17;23.30;65.00
66708;DHT22;53622;0.000;0.000;2023-07-31T12:54:46;23.30;65.00
66708;DHT22;53622;0.000;0.000;2023-07-31T12:57:15;23.40;64.90
66708;DHT22;53622;0.000;0.000;2023-07-31T12:59:46;23.30;64.90
66708;DHT22;53622;0.000;0.000;2023-07-31T13:02:15;23.40;65.00
66708;DHT22;53622;0.000;0.000;2023-07-31T13:04:49;23.40;64.90
66708;DHT22;53622;0.000;0.000;2023-07-31T13:07:19;23.40;64.90
66708;DHT22;53622;0.000;0.000;2023-07-31T13:09:48;23.40;64.90
66708;DHT22;53622;0.000;0.000;2023-07-31T13:12:18;23.40;65.00
66708;DHT22;53622;0.000;0.000;2023-07-31T13:14:50;23.40;64.80
66708;DHT22;53622;0.000;0.000;2023-07-31T13:17:21;23.40;64.90
66708;DHT22;53622;0.000;0.000;2023-07-31T13:19:50;23.40;64.90
66708;DHT22;53622;0.000;0.000;2023-07-31T13:22:20;23.40;64.90
66708;DHT22;53622;0.000;0.000;2023-07-31T13:24:49;23.40;64.90
66708;DHT22;53622;0.000;0.000;2023-07-31T13:27:18;23.40;64.80
66708;DHT22;53622;0.000;0.000;2023-07-31T13:29:51;23.50;65.00
66708;DHT22;53622;0.000;0.000;2023-07-31T13:32:21;23.50;64.80
66708;DHT22;53622;0.000;0.000;2023-07-31T13:34:51;23.50;64.80
66708;DHT22;53622;0.000;0.000;2023-07-31T13:37:21;23.50;64.80
66708;DHT22;53622;0.000;0.000;2023-07-31T13:39:50;23.50;64.90
66708;DHT22;53622;0.000;0.000;2023-07-31T13:42:20;23.50;64.90
66708;DHT22;53622;0.000;0.000;2023-07-31T13:44:51;23.50;65.00
66708;DHT22;53622;0.000;0.000;2023-07-31T13:47:21;23.50;65.00
66708;DHT22;53622;0.000;0.000;2023-07-31T13:49:51;23.50;65.10
66708;DHT22;53622;0.000;0.000;2023-07-31T13:52:21;23.50;65.00
66708;DHT22;53622;0.000;0.000;2023-07-31T13:54:51;23.50;65.00
66708;DHT22;53622;0.000;0.000;2023-07-31T13:57:20;23.50;64.90
66708;DHT22;53622;0.000;0.000;2023-07-31T13:59:52;23.50;64.90
66708;DHT22;53622;0.000;0.000;2023-07-31T14:02:22;23.50;64.90
66708;DHT22;53622;0.000;0.000;2023-07-31T14:04:51;23.50;65.00
66708;DHT22;53622;0.000;0.000;2023-07-31T14:07:21;23.50;65.00
66708;DHT22;53622;0.000;0.000;2023-07-31T14:09:50;23.50;65.00
66708;DHT22;53622;0.000;0.000;2023-07-31T14:12:19;23.50;65.10
66708;DHT22;53622;0.000;0.000;2023-07-31T14:15:10;23.50;65.20
66708;DHT22;53622;0.000;0.000;2023-07-31T14:17:40;23.60;65.40
66708;DHT22;53622;0.000;0.000;2023-07-31T14:20:10;23.50;65.30
66708;DHT22;53622;0.000;0.000;2023-07-31T14:22:40;23.60;65.40
66708;DHT22;53622;0.000;0.000;2023-07-31T14:25:10;23.60;65.30
66708;DHT22;53622;0.000;0.000;2023-07-31T14:27:39;23.60;65.50
66708;DHT22;53622;0.000;0.000;2023-07-31T14:30:10;23.60;65.50
66708;DHT22;53622;0.000;0.000;2023-07-31T14:32:39;23.60;65.50
66708;DHT22;53622;0.000;0.000;2023-07-31T14:35:09;23.60;65.60
66708;DHT22;53622;0.000;0.000;2023-07-31T14:37:39;23.60;65.30
66708;DHT22;53622;0.000;0.000;2023-07-31T14:40:11;23.70;65.20
66708;DHT22;53622;0.000;0.000;2023-07-31T14:42:40;23.80;64.90
66708;DHT22;53622;0.000;0.000;2023-07-31T14:45:11;23.90;64.40
66708;DHT22;53622;0.000;0.000;2023-07-31T14:47:41;24.00;63.50
66708;DHT22;53622;0.000;0.000;2023-07-31T14:50:12;24.00;63.70
66708;DHT22;53622;0.000;0.000;2023-07-31T14:52:41;24.00;64.30
66708;DHT22;53622;0.000;0.000;2023-07-31T14:55:10;24.00;64.70
66708;DHT22;53622;0.000;0.000;2023-07-31T14:57:40;24.00;65.00
66708;DHT22;53622;0.000;0.000;2023-07-31T15:00:11;24.00;65.20
66708;DHT22;53622;0.000;0.000;2023-07-31T15:02:41;24.00;65.30
66708;DHT22;53622;0.000;0.000;2023-07-31T15:05:11;23.90;65.40
66708;DHT22;53622;0.000;0.000;2023-07-31T15:07:40;23.90;65.60
66708;DHT22;53622;0.000;0.000;2023-07-31T15:10:09;23.90;65.80
66708;DHT22;53622;0.000;0.000;2023-07-31T15:12:40;24.00;65.90
66708;DHT22;53622;0.000;0.000;2023-07-31T15:15:11;24.00;65.80
66708;DHT22;53622;0.000;0.000;2023-07-31T15:17:40;24.00;65.70
66708;DHT22;53622;0.000;0.000;2023-07-31T15:20:10;24.00;65.70
66708;DHT22;53622;0.000;0.000;2023-07-31T15:22:40;24.10;65.80
66708;DHT22;53622;0.000;0.000;2023-07-31T15:25:09;24.10;65.80
66708;DHT22;53622;0.000;0.000;2023-07-31T15:27:38;24.10;65.90
66708;DHT22;53622;0.000;0.000;2023-07-31T15:30:10;24.10;65.80
66708;DHT22;53622;0.000;0.000;2023-07-31T15:32:40;24.10;66.20
66708;DHT22;53622;0.000;0.000;2023-07-31T15:35:11;24.10;66.20
66708;DHT22;53622;0.000;0.000;2023-07-31T15:37:41;24.20;66.20
66708;DHT22;53622;0.000;0.000;2023-07-31T15:40:10;24.20;66.50
66708;DHT22;53622;0.000;0.000;2023-07-31T15:42:40;24.30;66.50
66708;DHT22;53622;0.000;0.000;2023-07-31T15:45:11;24.30;67.40
66708;DHT22;53622;0.000;0.000;2023-07-31T15:47:40;24.30;66.70
66708;DHT22;53622;0.000;0.000;2023-07-31T15:50:10;24.30;67.00
66708;DHT22;53622;0.000;0.000;2023-07-31T15:52:39;24.30;66.90
66708;DHT22;53622;0.000;0.000;2023-07-31T15:55:09;24.30;66.90
66708;DHT22;53622;0.000;0.000;2023-07-31T15:57:39;24.40;67.10
66708;DHT22;53622;0.000;0.000;2023-07-31T16:00:11;24.40;67.30
66708;DHT22;53622;0.000;0.000;2023-07-31T16:02:40;24.40;67.40
66708;DHT22;53622;0.000;0.000;2023-07-31T16:05:10;24.40;67.40
66708;DHT22;53622;0.000;0.000;2023-07-31T16:07:39;24.40;67.40